createdAt,value
2022-12-06T00:00:52.766Z,57.92
2022-12-06T00:03:20.336Z,57.94
2022-12-06T00:05:47.901Z,58.03
2022-12-06T00:08:15.705Z,57.96
2022-12-06T00:10:43.251Z,58.29
2022-12-06T00:13:10.769Z,58.18
2022-12-06T00:15:39.641Z,58.04
2022-12-06T00:18:07.229Z,58.11
2022-12-06T00:20:34.929Z,57.98
2022-12-06T00:23:02.504Z,58.00
2022-12-06T00:25:30.186Z,57.97
2022-12-06T00:27:57.700Z,57.83
2022-12-06T00:30:25.232Z,57.82
2022-12-06T00:32:54.110Z,57.85
2022-12-06T00:35:21.637Z,57.98
2022-12-06T00:37:49.158Z,58.13
2022-12-06T00:40:16.761Z,58.07
2022-12-06T00:42:44.568Z,57.97
2022-12-06T00:45:12.359Z,57.98
2022-12-06T00:47:39.898Z,57.81
2022-12-06T00:50:10.223Z,57.73
2022-12-06T00:52:37.783Z,57.66
2022-12-06T00:55:05.851Z,57.71
2022-12-06T00:57:33.389Z,57.66
2022-12-06T01:00:01.124Z,57.74
2022-12-06T01:02:28.844Z,57.90
2022-12-06T01:04:56.403Z,57.83
2022-12-06T01:07:25.252Z,57.64
2022-12-06T01:09:52.827Z,57.78
2022-12-06T01:12:20.266Z,57.69
2022-12-06T01:14:47.726Z,57.73
2022-12-06T01:17:15.158Z,57.74
2022-12-06T01:19:42.870Z,57.64
2022-12-06T01:22:10.297Z,57.62
2022-12-06T01:24:39.345Z,57.63
2022-12-06T01:27:06.785Z,57.68
2022-12-06T01:29:34.250Z,57.65
2022-12-06T01:32:01.700Z,57.64
2022-12-06T01:34:29.163Z,57.64
2022-12-06T01:36:56.607Z,57.70
2022-12-06T01:39:24.168Z,57.74
2022-12-06T01:41:52.919Z,57.67
2022-12-06T01:44:39.668Z,57.57
2022-12-06T01:47:07.162Z,57.63
2022-12-06T01:49:35.376Z,57.55
2022-12-06T01:52:04.439Z,57.71
2022-12-06T01:54:32.574Z,57.55
2022-12-06T01:57:01.347Z,57.53
2022-12-06T01:59:28.849Z,57.70
2022-12-06T02:01:56.548Z,57.44
2022-12-06T02:04:24.060Z,57.48
2022-12-06T02:06:51.854Z,57.53
2022-12-06T02:09:19.584Z,57.45
2022-12-06T02:11:47.652Z,57.50
2022-12-06T02:14:17.632Z,57.46
2022-12-06T02:16:58.700Z,57.50
2022-12-06T02:19:48.959Z,57.71
2022-12-06T02:22:17.422Z,57.71
2022-12-06T02:24:56.770Z,57.81
2022-12-06T02:27:47.602Z,57.55
2022-12-06T02:30:18.625Z,57.47
2022-12-06T02:32:54.512Z,57.53
2022-12-06T02:35:26.308Z,57.45
2022-12-06T02:37:54.908Z,57.51
2022-12-06T02:40:24.403Z,57.44
2022-12-06T02:42:54.375Z,57.45
2022-12-06T02:45:24.215Z,57.57
2022-12-06T02:47:52.981Z,57.57
2022-12-06T02:50:23.376Z,57.60
2022-12-06T02:52:51.503Z,57.50
2022-12-06T02:55:19.332Z,57.54
2022-12-06T02:57:47.722Z,57.40
2022-12-06T03:00:33.980Z,57.38
2022-12-06T03:03:19.310Z,57.53
2022-12-06T03:05:52.921Z,57.58
2022-12-06T03:08:24.167Z,57.63
2022-12-06T03:10:53.640Z,57.81
2022-12-06T03:13:23.995Z,57.57
2022-12-06T03:15:54.843Z,57.54
2022-12-06T03:18:25.153Z,57.58
2022-12-06T03:20:53.299Z,57.49
2022-12-06T03:23:22.814Z,57.46
2022-12-06T03:25:50.268Z,57.57
2022-12-06T03:28:18.054Z,57.57
2022-12-06T03:30:47.257Z,57.55
2022-12-06T03:33:14.831Z,57.42
2022-12-06T03:35:43.643Z,57.38
2022-12-06T03:38:12.011Z,57.37
2022-12-06T03:40:40.285Z,57.54
2022-12-06T03:43:07.714Z,57.52
2022-12-06T03:45:38.111Z,57.40
2022-12-06T03:48:08.048Z,57.36
2022-12-06T03:50:37.011Z,56.89
2022-12-06T03:53:05.912Z,57.29
2022-12-06T03:55:33.385Z,57.45
2022-12-06T03:58:00.843Z,57.60
2022-12-06T04:00:28.299Z,57.51
2022-12-06T04:02:55.762Z,57.33
2022-12-06T04:05:23.193Z,57.40
2022-12-06T04:07:50.710Z,57.42
2022-12-06T04:10:19.584Z,57.51
2022-12-06T04:13:01.295Z,57.51
2022-12-06T04:15:29.181Z,57.50
2022-12-06T04:18:10.719Z,57.49
2022-12-06T04:21:00.887Z,57.39
2022-12-06T04:23:28.375Z,57.40
2022-12-06T04:25:57.157Z,57.25
2022-12-06T04:28:42.394Z,57.27
2022-12-06T04:31:27.776Z,57.53
2022-12-06T04:34:13.269Z,57.44
2022-12-06T04:36:58.564Z,57.30
2022-12-06T04:39:26.263Z,57.27
2022-12-06T04:42:13.015Z,57.24
2022-12-06T04:44:40.484Z,57.44
2022-12-06T04:47:08.345Z,57.31
2022-12-06T04:49:35.921Z,57.02
2022-12-06T04:52:03.486Z,57.06
2022-12-06T04:54:31.163Z,56.72
2022-12-06T04:57:00.018Z,57.01
2022-12-06T04:59:28.404Z,56.93
2022-12-06T05:04:15.579Z,56.90
2022-12-06T05:06:43.060Z,56.70
2022-12-06T05:09:10.549Z,56.55
2022-12-06T05:11:37.993Z,56.54
2022-12-06T05:14:06.766Z,56.50
2022-12-06T05:16:34.348Z,56.51
2022-12-06T05:19:01.880Z,56.49
2022-12-06T05:21:29.499Z,56.43
2022-12-06T05:23:57.059Z,56.44
2022-12-06T05:26:25.744Z,56.46
2022-12-06T05:28:53.710Z,56.52
2022-12-06T05:31:22.871Z,56.51
2022-12-06T05:33:50.479Z,56.61
2022-12-06T05:36:19.880Z,56.52
2022-12-06T05:38:51.313Z,56.47
2022-12-06T05:41:19.341Z,56.30
2022-12-06T05:43:46.818Z,56.23
2022-12-06T05:46:14.402Z,56.53
2022-12-06T05:48:43.277Z,56.23
2022-12-06T05:51:10.773Z,56.25
2022-12-06T05:53:38.232Z,56.31
2022-12-06T05:56:07.000Z,56.17
2022-12-06T05:58:34.454Z,56.14
2022-12-06T06:01:01.907Z,56.21
2022-12-06T06:03:29.500Z,56.23
2022-12-06T06:06:00.111Z,56.34
2022-12-06T06:08:27.691Z,56.38
2022-12-06T06:10:55.159Z,56.18
2022-12-06T06:13:22.592Z,56.24
2022-12-06T06:15:50.069Z,56.30
2022-12-06T06:18:17.615Z,56.18
2022-12-06T06:20:49.179Z,56.29
2022-12-06T06:23:18.021Z,56.15
2022-12-06T06:25:45.552Z,56.20
2022-12-06T06:28:13.136Z,55.98
2022-12-06T06:30:40.597Z,56.03
2022-12-06T06:33:08.067Z,56.10
2022-12-06T06:35:35.586Z,56.08
2022-12-06T06:38:03.098Z,56.13
2022-12-06T06:40:31.889Z,56.09
2022-12-06T06:43:17.759Z,56.12
2022-12-06T06:45:46.567Z,56.04
2022-12-06T06:48:14.160Z,55.92
2022-12-06T06:50:41.614Z,55.84
2022-12-06T06:53:09.129Z,55.88
2022-12-06T06:55:37.886Z,55.62
2022-12-06T06:58:05.464Z,55.65
2022-12-06T07:00:33.140Z,55.69
2022-12-06T07:03:00.652Z,55.80
2022-12-06T07:05:28.152Z,56.13
2022-12-06T07:07:57.575Z,56.07
2022-12-06T07:10:27.195Z,56.39
2022-12-06T07:12:55.957Z,56.52
2022-12-06T07:15:23.397Z,56.66
2022-12-06T07:17:51.513Z,57.15
2022-12-06T07:20:19.055Z,57.11
2022-12-06T07:22:46.550Z,57.41
2022-12-06T07:25:13.988Z,57.17
2022-12-06T07:27:41.438Z,56.73
2022-12-06T07:30:15.812Z,56.75
2022-12-06T07:32:44.551Z,56.85
2022-12-06T07:35:12.107Z,57.06
2022-12-06T07:37:39.795Z,57.65
2022-12-06T07:40:08.972Z,58.28
2022-12-06T07:42:53.974Z,59.00
2022-12-06T07:45:22.751Z,58.86
2022-12-06T07:47:50.210Z,58.35
2022-12-06T07:50:18.779Z,58.13
2022-12-06T07:52:46.451Z,58.44
2022-12-06T07:55:14.019Z,58.14
2022-12-06T07:57:43.642Z,58.49
2022-12-06T08:00:12.950Z,58.48
2022-12-06T08:02:41.723Z,58.62
2022-12-06T08:05:09.823Z,58.68
2022-12-06T08:07:37.317Z,58.87
2022-12-06T08:10:05.157Z,58.87
2022-12-06T08:12:32.817Z,58.76
2022-12-06T08:15:00.496Z,58.77
2022-12-06T08:17:28.009Z,58.59
2022-12-06T08:19:56.876Z,58.78
2022-12-06T08:22:24.362Z,58.93
2022-12-06T08:24:51.844Z,58.97
2022-12-06T08:27:19.295Z,58.88
2022-12-06T08:29:46.733Z,58.99
2022-12-06T08:32:14.183Z,58.30
2022-12-06T08:34:42.758Z,58.68
2022-12-06T08:37:11.659Z,58.69
2022-12-06T08:39:39.114Z,58.94
2022-12-06T08:42:07.918Z,58.47
2022-12-06T08:44:36.316Z,58.55
2022-12-06T08:47:03.791Z,58.90
2022-12-06T08:49:31.370Z,58.96
2022-12-06T08:51:59.005Z,56.81
2022-12-06T08:54:27.764Z,56.65
2022-12-06T08:56:55.401Z,57.56
2022-12-06T08:59:23.067Z,58.42
2022-12-06T09:01:50.551Z,59.00
2022-12-06T09:04:18.047Z,58.39
2022-12-06T09:06:45.663Z,58.07
2022-12-06T09:09:13.761Z,57.65
2022-12-06T09:11:42.554Z,57.37
2022-12-06T09:14:11.056Z,57.10
2022-12-06T09:16:38.932Z,57.75
2022-12-06T09:19:06.377Z,57.79
2022-12-06T09:21:34.410Z,57.69
2022-12-06T09:24:01.872Z,57.94
2022-12-06T09:26:29.615Z,56.90
2022-12-06T09:28:58.740Z,57.68
2022-12-06T09:31:26.373Z,58.07
2022-12-06T09:33:53.883Z,58.45
2022-12-06T09:36:23.221Z,58.66
2022-12-06T09:38:52.795Z,59.05
2022-12-06T09:41:29.354Z,58.05
2022-12-06T09:44:05.260Z,58.07
2022-12-06T09:46:43.422Z,58.04
2022-12-06T09:49:29.524Z,57.89
2022-12-06T09:52:17.041Z,57.87
2022-12-06T09:54:57.383Z,57.69
2022-12-06T09:57:30.825Z,57.46
2022-12-06T10:00:05.239Z,57.46
2022-12-06T10:02:52.223Z,57.19
2022-12-06T10:05:31.353Z,57.53
2022-12-06T10:08:04.017Z,57.53
2022-12-06T10:10:35.523Z,57.37
2022-12-06T10:13:05.212Z,57.38
2022-12-06T10:15:41.330Z,57.22
2022-12-06T10:18:16.412Z,57.31
2022-12-06T10:20:46.264Z,57.68
2022-12-06T10:23:20.078Z,56.77
2022-12-06T10:25:50.234Z,57.05
2022-12-06T10:28:19.222Z,57.28
2022-12-06T10:30:51.328Z,57.22
2022-12-06T10:33:22.248Z,56.95
2022-12-06T10:35:52.104Z,57.30
2022-12-06T10:38:26.367Z,57.62
2022-12-06T10:41:01.156Z,57.91
2022-12-06T10:43:30.153Z,57.90
2022-12-06T10:46:22.667Z,57.83
2022-12-06T10:48:55.711Z,57.79
2022-12-06T10:51:25.016Z,57.88
2022-12-06T10:53:53.988Z,57.91
2022-12-06T10:56:22.356Z,58.03
2022-12-06T10:58:52.058Z,58.24
2022-12-06T11:01:22.255Z,58.09
2022-12-06T11:03:51.135Z,58.14
2022-12-06T11:06:21.614Z,58.07
2022-12-06T11:08:50.778Z,57.98
2022-12-06T11:11:21.240Z,57.91
2022-12-06T11:13:49.805Z,57.86
2022-12-06T11:16:18.904Z,57.94
2022-12-06T11:18:47.853Z,58.03
2022-12-06T11:21:21.749Z,57.85
2022-12-06T11:23:53.146Z,58.15
2022-12-06T11:26:24.246Z,57.04
2022-12-06T11:28:59.973Z,57.22
2022-12-06T11:31:28.895Z,57.36
2022-12-06T11:33:57.683Z,57.21
2022-12-06T11:36:25.257Z,57.27
2022-12-06T11:38:52.742Z,57.17
2022-12-06T11:41:22.289Z,57.24
2022-12-06T11:43:49.842Z,57.05
2022-12-06T11:46:17.369Z,57.02
2022-12-06T11:48:44.879Z,56.99
2022-12-06T11:51:17.472Z,56.93
2022-12-06T11:53:53.481Z,56.97
2022-12-06T11:56:23.317Z,56.78
2022-12-06T11:58:58.980Z,56.71
2022-12-06T12:01:38.081Z,56.71
2022-12-06T12:04:39.285Z,56.77
2022-12-06T12:07:13.324Z,56.59
2022-12-06T12:09:47.693Z,56.65
2022-12-06T12:12:16.489Z,56.57
2022-12-06T12:14:49.582Z,56.62
2022-12-06T12:17:20.420Z,56.67
2022-12-06T12:19:51.045Z,56.58
2022-12-06T12:22:25.067Z,56.60
2022-12-06T12:27:46.033Z,56.51
2022-12-06T12:30:28.091Z,56.52
2022-12-06T12:33:18.987Z,56.31
2022-12-06T12:35:47.403Z,56.50
2022-12-06T12:38:19.252Z,56.51
2022-12-06T12:40:47.609Z,56.31
2022-12-06T12:43:17.542Z,56.28
2022-12-06T12:46:03.566Z,56.34
2022-12-06T12:48:31.147Z,56.24
2022-12-06T12:51:00.126Z,56.15
2022-12-06T12:53:30.760Z,56.22
2022-12-06T12:56:07.132Z,56.15
2022-12-06T12:58:36.255Z,56.28
2022-12-06T13:01:06.923Z,56.30
2022-12-06T13:03:50.554Z,56.17
2022-12-06T13:06:22.610Z,56.00
2022-12-06T13:08:51.398Z,56.16
2022-12-06T13:11:18.863Z,56.03
2022-12-06T13:13:48.271Z,56.09
2022-12-06T13:16:16.876Z,55.82
2022-12-06T13:18:46.078Z,55.91
2022-12-06T13:21:24.048Z,55.71
2022-12-06T13:23:54.405Z,55.88
2022-12-06T13:26:24.042Z,56.04
2022-12-06T13:28:52.289Z,55.94
2022-12-06T13:31:21.095Z,55.93
2022-12-06T13:33:50.337Z,55.77
2022-12-06T13:36:17.790Z,55.79
2022-12-06T13:38:45.297Z,55.70
2022-12-06T13:41:14.368Z,55.70
2022-12-06T13:43:51.490Z,55.55
2022-12-06T13:46:32.909Z,55.83
2022-12-06T13:49:01.945Z,55.71
2022-12-06T13:51:50.500Z,55.58
2022-12-06T13:54:36.076Z,55.47
2022-12-06T13:57:26.157Z,55.48
2022-12-06T13:59:53.708Z,55.55
2022-12-06T14:02:44.856Z,55.42
2022-12-06T14:08:20.987Z,55.51
2022-12-06T14:10:48.525Z,54.79
2022-12-06T14:13:21.501Z,54.75
2022-12-06T14:15:52.554Z,55.04
2022-12-06T14:18:21.482Z,55.08
2022-12-06T14:20:49.611Z,54.86
2022-12-06T14:23:24.248Z,55.17
2022-12-06T14:25:51.810Z,55.08
2022-12-06T14:28:20.657Z,54.99
2022-12-06T14:30:48.209Z,55.10
2022-12-06T14:33:19.590Z,55.11
2022-12-06T14:35:50.630Z,55.18
2022-12-06T14:38:22.737Z,55.15
2022-12-06T14:41:04.594Z,55.07
2022-12-06T14:43:33.907Z,55.18
2022-12-06T14:46:03.045Z,55.46
2022-12-06T14:48:52.848Z,55.18
2022-12-06T14:51:23.224Z,55.47
2022-12-06T14:53:51.369Z,55.44
2022-12-06T14:56:23.232Z,55.43
2022-12-06T14:58:52.056Z,55.38
2022-12-06T15:01:22.557Z,55.41
2022-12-06T15:03:58.131Z,55.63
2022-12-06T15:06:26.504Z,55.60
2022-12-06T15:09:05.790Z,55.52
2022-12-06T15:11:51.310Z,55.61
2022-12-06T15:14:21.931Z,55.67
2022-12-06T15:16:57.741Z,55.76
2022-12-06T15:19:25.207Z,55.83
2022-12-06T15:21:52.806Z,55.88
2022-12-06T15:24:20.920Z,55.96
2022-12-06T15:26:48.427Z,55.95
2022-12-06T15:29:16.017Z,55.93
2022-12-06T15:31:49.258Z,56.09
2022-12-06T15:34:22.373Z,56.16
2022-12-06T15:36:55.927Z,56.09
2022-12-06T15:39:36.732Z,55.94
2022-12-06T15:42:04.243Z,56.05
2022-12-06T15:44:31.679Z,56.12
2022-12-06T15:47:00.455Z,56.03
2022-12-06T15:49:28.380Z,56.13
2022-12-06T15:51:55.847Z,56.04
2022-12-06T15:54:24.083Z,55.94
2022-12-06T15:56:51.812Z,55.96
2022-12-06T15:59:19.498Z,56.02
2022-12-06T16:01:48.505Z,55.97
2022-12-06T16:04:17.931Z,55.99
2022-12-06T16:06:45.628Z,55.83
2022-12-06T16:09:13.851Z,55.91
2022-12-06T16:11:41.364Z,55.96
2022-12-06T16:14:08.863Z,55.86
2022-12-06T16:16:42.907Z,56.01
2022-12-06T16:19:10.951Z,55.81
2022-12-06T16:21:51.545Z,55.71
2022-12-06T16:24:18.120Z,55.91
2022-12-06T16:26:45.956Z,55.86
2022-12-06T16:29:14.539Z,55.64
2022-12-06T16:31:42.176Z,55.93
2022-12-06T16:34:09.791Z,56.07
2022-12-06T16:36:53.298Z,55.92
2022-12-06T16:39:20.745Z,55.92
2022-12-06T16:41:48.391Z,56.04
2022-12-06T16:44:15.831Z,56.12
2022-12-06T16:46:44.352Z,56.02
2022-12-06T16:49:46.764Z,56.06
2022-12-06T16:52:03.827Z,56.08
2022-12-06T16:54:31.257Z,56.26
2022-12-06T16:56:58.687Z,56.12
2022-12-06T16:59:26.123Z,56.33
2022-12-06T17:01:54.433Z,56.35
2022-12-06T17:04:22.016Z,56.18
2022-12-06T17:06:49.671Z,56.27
2022-12-06T17:09:18.435Z,56.34
2022-12-06T17:12:06.165Z,56.34
2022-12-06T17:14:33.828Z,56.31
2022-12-06T17:17:03.797Z,56.26
2022-12-06T17:19:32.015Z,56.35
2022-12-06T17:21:59.520Z,56.40
2022-12-06T17:24:28.646Z,56.28
2022-12-06T17:26:56.212Z,56.52
2022-12-06T17:29:24.177Z,56.47
2022-12-06T17:31:51.735Z,56.52
2022-12-06T17:34:19.826Z,56.60
2022-12-06T17:36:47.810Z,56.56
2022-12-06T17:39:16.148Z,56.45
2022-12-06T17:42:02.586Z,56.54
2022-12-06T17:44:30.203Z,56.53
2022-12-06T17:46:57.687Z,56.46
2022-12-06T17:49:26.030Z,56.52
2022-12-06T17:51:53.544Z,56.39
2022-12-06T17:54:21.373Z,56.54
2022-12-06T17:56:50.551Z,56.52
2022-12-06T17:59:18.686Z,56.62
2022-12-06T18:04:33.770Z,56.57
2022-12-06T18:07:01.239Z,56.69
2022-12-06T18:09:28.859Z,56.67
2022-12-06T18:11:57.657Z,56.49
2022-12-06T18:14:25.133Z,56.61
2022-12-06T18:16:52.624Z,56.51
2022-12-06T18:19:21.249Z,56.52
2022-12-06T18:21:49.514Z,56.64
2022-12-06T18:24:22.562Z,56.54
2022-12-06T18:26:51.267Z,56.47
2022-12-06T18:29:20.686Z,56.60
2022-12-06T18:31:48.260Z,56.59
2022-12-06T18:34:15.772Z,56.60
2022-12-06T18:36:43.275Z,56.58
2022-12-06T18:39:15.083Z,56.33
2022-12-06T18:41:43.366Z,56.41
2022-12-06T18:44:10.825Z,56.45
2022-12-06T18:46:41.100Z,56.48
2022-12-06T18:49:08.597Z,56.40
2022-12-06T18:51:38.340Z,56.44
2022-12-06T18:54:06.024Z,56.55
2022-12-06T18:56:34.038Z,56.46
2022-12-06T18:59:01.998Z,56.41
2022-12-06T19:01:30.963Z,56.70
2022-12-06T19:04:00.587Z,56.53
2022-12-06T19:06:29.206Z,56.51
2022-12-06T19:08:57.680Z,56.61
2022-12-06T19:11:25.171Z,56.48
2022-12-06T19:13:53.223Z,56.53
2022-12-06T19:16:22.950Z,56.50
2022-12-06T19:18:50.872Z,56.46
2022-12-06T19:21:19.712Z,56.37
2022-12-06T19:23:47.238Z,56.36
2022-12-06T19:26:14.679Z,56.33
2022-12-06T19:28:42.183Z,56.38
2022-12-06T19:31:11.327Z,56.32
2022-12-06T19:33:39.566Z,56.36
2022-12-06T19:36:08.037Z,56.34
2022-12-06T19:38:36.843Z,56.42
2022-12-06T19:41:04.629Z,56.44
2022-12-06T19:43:49.690Z,56.37
2022-12-06T19:46:17.971Z,56.38
2022-12-06T19:48:45.512Z,56.39
2022-12-06T19:51:13.015Z,56.36
2022-12-06T19:53:42.838Z,56.30
2022-12-06T19:56:11.669Z,56.27
2022-12-06T19:58:39.152Z,56.30
2022-12-06T20:01:10.249Z,56.25
2022-12-06T20:03:38.120Z,56.33
2022-12-06T20:06:06.814Z,56.33
2022-12-06T20:08:34.276Z,56.45
2022-12-06T20:11:07.224Z,56.38
2022-12-06T20:13:34.777Z,56.40
2022-12-06T20:16:02.791Z,56.38
2022-12-06T20:18:30.348Z,56.32
2022-12-06T20:20:57.820Z,56.35
2022-12-06T20:23:25.361Z,56.22
2022-12-06T20:25:52.818Z,56.31
2022-12-06T20:28:21.609Z,56.29
2022-12-06T20:30:49.172Z,56.26
2022-12-06T20:33:16.664Z,56.22
2022-12-06T20:35:44.139Z,56.42
2022-12-06T20:38:11.852Z,56.39
2022-12-06T20:40:39.313Z,56.48
2022-12-06T20:43:06.786Z,56.40
2022-12-06T20:45:36.226Z,56.47
2022-12-06T20:48:04.012Z,56.44
2022-12-06T20:50:31.517Z,56.41
2022-12-06T20:52:59.004Z,56.41
2022-12-06T20:55:26.485Z,56.39
2022-12-06T20:57:53.975Z,56.36
2022-12-06T21:00:22.324Z,56.39
2022-12-06T21:02:51.213Z,56.32
2022-12-06T21:05:19.100Z,56.36
2022-12-06T21:07:46.710Z,56.36
2022-12-06T21:10:14.232Z,56.49
2022-12-06T21:12:41.683Z,56.46
2022-12-06T21:15:09.694Z,56.22
2022-12-06T21:17:37.156Z,56.36
2022-12-06T21:20:07.524Z,56.37
2022-12-06T21:22:35.003Z,56.39
2022-12-06T21:25:02.499Z,56.27
2022-12-06T21:27:29.976Z,56.33
2022-12-06T21:29:57.480Z,56.39
2022-12-06T21:32:25.714Z,56.31
2022-12-06T21:34:53.165Z,56.36
2022-12-06T21:37:21.987Z,56.17
2022-12-06T21:39:49.459Z,56.28
2022-12-06T21:42:20.753Z,56.19
2022-12-06T21:44:48.213Z,56.33
2022-12-06T21:47:15.670Z,56.31
2022-12-06T21:49:43.106Z,56.53
2022-12-06T21:52:10.614Z,56.40
2022-12-06T21:54:39.426Z,56.39
2022-12-06T21:57:06.958Z,56.41
2022-12-06T21:59:34.495Z,56.32
2022-12-06T22:02:02.073Z,56.28
2022-12-06T22:04:29.630Z,56.36
2022-12-06T22:06:57.129Z,56.41
2022-12-06T22:09:24.591Z,56.28
2022-12-06T22:11:53.567Z,56.42
2022-12-06T22:14:21.081Z,56.33
2022-12-06T22:16:49.788Z,56.30
2022-12-06T22:19:17.432Z,56.36
2022-12-06T22:21:44.932Z,56.39
2022-12-06T22:24:12.456Z,56.31
2022-12-06T22:26:40.000Z,56.40
2022-12-06T22:29:08.810Z,56.34
2022-12-06T22:31:36.352Z,56.27
2022-12-06T22:34:03.835Z,56.46
2022-12-06T22:36:31.823Z,56.34
2022-12-06T22:39:00.266Z,56.54
2022-12-06T22:41:28.338Z,56.50
2022-12-06T22:43:56.681Z,56.63
2022-12-06T22:46:26.675Z,56.52
2022-12-06T22:48:54.362Z,56.53
2022-12-06T22:51:23.276Z,56.58
2022-12-06T22:53:53.184Z,56.49
2022-12-06T22:56:20.742Z,56.39
2022-12-06T22:58:48.200Z,56.37
2022-12-06T23:01:17.161Z,56.13
2022-12-06T23:03:46.241Z,56.34
2022-12-06T23:06:13.878Z,56.33
2022-12-06T23:08:41.432Z,56.35
2022-12-06T23:11:09.808Z,56.48
2022-12-06T23:13:37.316Z,56.47
2022-12-06T23:16:06.921Z,56.52
2022-12-06T23:18:34.794Z,56.53
2022-12-06T23:21:06.975Z,56.68
2022-12-06T23:23:34.569Z,56.52
2022-12-06T23:26:03.359Z,56.47
2022-12-06T23:28:31.200Z,56.35
2022-12-06T23:31:02.833Z,56.42
2022-12-06T23:33:30.287Z,56.47
2022-12-06T23:36:04.366Z,56.37
2022-12-06T23:38:32.139Z,56.48
2022-12-06T23:41:03.068Z,56.42
2022-12-06T23:43:30.514Z,56.42
2022-12-06T23:46:01.038Z,56.58
2022-12-06T23:48:31.926Z,56.57
2022-12-06T23:51:00.621Z,56.30
2022-12-06T23:53:29.465Z,56.47
2022-12-06T23:55:59.616Z,56.36
2022-12-06T23:58:26.992Z,56.53
